Thunder radar more information blitzortung!


Radar de pluja more information rain snow radar


Visita la nostra xarxa de llocs de meteo:

Template documentation
and downloads

And another site



No particular awareness of the weather is required.    There are no Weather-warnings

Pagina Historial Weather Underground text

Diari Resum January 6, 2018 Unitats:  Imperial    Mètric   Tant
« Previous Dia
SegĂźent Dia »
Diari Setmana Mensual Anual Personalitzada
  Maxima: Minima: Media:
Temperatura: TemperatureC °F 4.6 °F 11.5 °F
Punt de rosada: DewpointC °F -1.4 °F 6.1 °F
Humitat: Humidity % 52 % 70 %
Wind Speed: WindSpeedKMH mph 0.0 mph 8.7 mph
RĂ fegues de vent: WindSpeedGustKMH mph - -
Vent:- - East
Pression baro: PressurehPa in 996.8 in -
Precipitacions: 10.4 in    
Historical Graphs
 
 
Dades de taula per January 6, 2018
Temps Temperatura Punt de rosada Pression baro Vent Wind Speed RĂ fegues de vent Humitat Rainfall Rate (Hourly)
TemperatureC °F DewpointC °F PressurehPa in Calm     Humidity % HourlyPrecipMM in
00:00 4.6 °F -1.4 °F 1003.9 in Calm   1.6 mph 65 % 0.0 in
00:03 8.7 °F -0.3 °F 1007.0 in NE 1.9 mph   53 % 0.0 in
00:04 8.7 °F -0.3 °F 1007.0 in Calm     53 % 0.0 in
00:09 8.7 °F -0.6 °F 1007.0 in NW 1.9 mph 2.3 mph 52 % 0.0 in
00:10 4.8 °F -1.2 °F 1003.9 in SE 1.6 mph 3.2 mph 65 % 0.0 in
00:11 8.7 °F -0.6 °F 1007.0 in NW 1.9 mph   52 % 0.0 in
00:16 8.7 °F -0.3 °F 1007.0 in WNW 3.7 mph 3.7 mph 53 % 0.0 in
00:18 8.7 °F -0.3 °F 1007.0 in WNW 1.9 mph   53 % 0.0 in
00:23 8.5 °F -0.6 °F 1007.0 in West 3.7 mph 3.7 mph 53 % 0.0 in
00:25 8.5 °F -0.6 °F 1007.0 in West 1.9 mph 1.9 mph 53 % 0.0 in
00:30 8.5 °F -0.6 °F 1007.0 in ENE 1.9 mph 2.3 mph 53 % 0.0 in
00:31 8.4 °F -0.6 °F 1007.0 in ENE 2.3 mph   53 % 0.0 in
00:36 8.3 °F -0.5 °F 1006.0 in NNE 1.9 mph   54 % 0.0 in
00:38 8.3 °F -0.5 °F 1006.0 in Calm     54 % 0.0 in
00:43 8.2 °F -0.6 °F 1006.0 in West 3.2 mph 3.2 mph 54 % 0.0 in
00:48 8.1 °F -0.9 °F 1006.0 in WSW 3.7 mph 3.7 mph 53 % 0.0 in
00:50 8.2 °F -0.6 °F 1006.0 in WSW 3.7 mph 3.7 mph 54 % 0.0 in
00:55 8.2 °F -0.6 °F 1006.0 in WSW 3.7 mph 3.7 mph 54 % 0.0 in
00:56 8.2 °F -0.6 °F 1006.0 in WSW 3.7 mph 3.7 mph 54 % 0.0 in
00:57 8.3 °F -0.5 °F 1006.0 in SW 2.3 mph 2.3 mph 54 % 0.0 in
01:02 8.2 °F -0.6 °F 1006.0 in ESE 5.0 mph 5.0 mph 54 % 0.0 in
01:07 7.8 °F -0.7 °F 1006.0 in ESE 5.6 mph 5.6 mph 55 % 0.0 in
01:09 7.8 °F -0.7 °F 1006.0 in NE 3.7 mph 3.7 mph 55 % 0.0 in
01:20 4.9 °F -0.7 °F 1003.9 in WSW 1.6 mph 1.6 mph 67 % 0.0 in
01:40 4.7 °F -1.1 °F 1003.9 in SW 3.2 mph 4.8 mph 66 % 0.0 in
01:50 4.8 °F -1.0 °F 1003.9 in Calm   4.8 mph 66 % 0.0 in
02:00 4.8 °F -0.8 °F 1003.9 in Calm   3.2 mph 67 % 0.0 in
02:10 4.8 °F -0.8 °F 1003.9 in SW 3.2 mph 4.8 mph 67 % 0.0 in
02:20 4.9 °F -0.7 °F 1003.9 in SW 1.6 mph 3.2 mph 67 % 0.0 in
02:30 5.1 °F -0.6 °F 1003.9 in Calm   4.8 mph 67 % 0.0 in
02:40 5.2 °F -0.4 °F 1003.9 in Calm   1.6 mph 67 % 0.0 in
02:50 5.3 °F -0.3 °F 1003.9 in Calm   1.6 mph 67 % 0.0 in
03:00 5.4 °F -0.2 °F 1003.9 in Calm   3.2 mph 67 % 0.0 in
03:10 5.7 °F 0.2 °F 1005.0 in SW 1.6 mph 3.2 mph 68 % 0.0 in
03:20 6.3 °F 0.8 °F 1003.9 in Calm     68 % 0.0 in
03:30 6.4 °F 0.7 °F 1003.9 in Calm   3.2 mph 67 % 0.0 in
03:40 6.5 °F 0.8 °F 1003.9 in West 4.8 mph 4.8 mph 67 % 0.0 in
03:50 6.6 °F 0.9 °F 1005.0 in NW 1.6 mph 6.4 mph 67 % 0.0 in
04:00 7.0 °F 1.1 °F 1005.0 in WNW 3.2 mph 8.0 mph 66 % 0.0 in
04:10 7.3 °F 1.6 °F 1003.9 in NNE 3.2 mph 4.8 mph 67 % 0.0 in
04:20 7.5 °F 1.6 °F 1003.9 in NE 1.6 mph 3.2 mph 66 % 0.0 in
04:30 7.7 °F 1.7 °F 1003.9 in NNE 1.6 mph 3.2 mph 66 % 0.0 in
04:40 8.0 °F 2.1 °F 1003.9 in NNE 1.6 mph 3.2 mph 66 % 0.0 in
04:50 8.2 °F 2.2 °F 1003.9 in Calm   3.2 mph 66 % 0.0 in
05:00 8.6 °F 2.6 °F 1003.9 in NE 3.2 mph 4.8 mph 66 % 0.0 in
05:20 9.0 °F 2.8 °F 1005.0 in ENE 1.6 mph 3.2 mph 65 % 0.0 in
05:30 9.0 °F 2.8 °F 1005.0 in NE 1.6 mph 4.8 mph 65 % 0.0 in
05:40 9.1 °F 2.7 °F 1005.0 in ENE 3.2 mph 3.2 mph 64 % 0.0 in
11:49 9.2 °F 2.7 °F 1005.0 in West 5.6 mph 5.6 mph 64 % 0.0 in
11:50 9.2 °F 2.7 °F 1005.0 in NE 5.6 mph 5.6 mph 64 % 0.0 in
11:55 9.3 °F 2.8 °F 1003.9 in NNE 7.4 mph 7.4 mph 64 % 0.0 in
12:00 9.3 °F 2.8 °F 1003.9 in NNE 5.6 mph 5.6 mph 64 % 0.0 in
12:05 9.5 °F 3.0 °F 1003.9 in NE 5.3 mph 5.3 mph 64 % 0.0 in
12:10 9.7 °F 3.2 °F 1003.9 in ENE 4.2 mph 4.2 mph 64 % 0.0 in
12:11 9.7 °F 3.2 °F 1003.9 in NNW 3.7 mph 3.7 mph 64 % 0.0 in
12:16 10.0 °F 3.5 °F 1003.9 in NNE 3.7 mph 3.7 mph 64 % 0.0 in
12:21 10.2 °F 3.7 °F 1003.9 in NE 3.7 mph 3.7 mph 64 % 0.0 in
12:25 10.4 °F 3.9 °F 1003.9 in NNE 3.7 mph 3.7 mph 64 % 0.0 in
12:30 10.6 °F 4.1 °F 1003.9 in North 5.6 mph 5.6 mph 64 % 0.0 in
12:35 10.7 °F 4.2 °F 1003.9 in NNE 3.7 mph 3.7 mph 64 % 0.0 in
12:40 10.6 °F 4.1 °F 1003.9 in ENE 7.4 mph 7.4 mph 64 % 0.0 in
12:46 10.6 °F 3.8 °F 1003.9 in NNE 7.4 mph 7.4 mph 63 % 0.0 in
12:51 10.8 °F 4.1 °F 1002.9 in NW 3.9 mph 3.9 mph 63 % 0.0 in
12:54 10.8 °F 4.1 °F 1002.9 in West 2.6 mph 3.2 mph 63 % 0.0 in
12:59 10.9 °F 4.1 °F 1002.9 in WNW 5.6 mph 5.6 mph 63 % 0.0 in
13:04 10.9 °F 4.1 °F 1002.9 in NE 6.1 mph 6.1 mph 63 % 0.0 in
13:09 10.9 °F 4.1 °F 1002.9 in NE 3.7 mph 3.7 mph 63 % 0.0 in
13:10 11.0 °F 4.2 °F 1002.9 in NE 3.7 mph 3.7 mph 63 % 0.0 in
13:12 11.0 °F 4.2 °F 1002.9 in NE 5.6 mph 5.6 mph 63 % 0.0 in
13:17 11.3 °F 4.5 °F 1002.9 in NE 5.6 mph 5.6 mph 63 % 0.0 in
13:20 11.5 °F 4.7 °F 1002.9 in ENE 5.6 mph 5.6 mph 63 % 0.0 in
13:25 11.8 °F 5.0 °F 1002.9 in NNE 3.7 mph 3.7 mph 63 % 0.0 in
13:27 11.8 °F 5.0 °F 1002.9 in East 4.2 mph 4.2 mph 63 % 0.0 in
13:32 12.0 °F 5.2 °F 1002.9 in NE 7.4 mph 7.4 mph 63 % 0.0 in
13:34 12.0 °F 5.2 °F 1002.9 in NNE 5.6 mph 5.6 mph 63 % 0.0 in
13:39 12.1 °F 5.3 °F 1001.9 in NNE 7.4 mph 7.4 mph 63 % 0.0 in
13:41 12.1 °F 5.3 °F 1001.9 in ENE 5.6 mph 5.6 mph 63 % 0.0 in
13:47 12.1 °F 5.3 °F 1001.9 in North 9.3 mph 9.3 mph 63 % 0.0 in
13:52 12.3 °F 5.7 °F 1001.9 in ENE 1.9 mph 1.9 mph 64 % 0.0 in
13:56 12.4 °F 5.8 °F 1001.9 in NNE 1.9 mph 1.9 mph 64 % 0.0 in
14:03 12.5 °F 5.9 °F 1001.9 in Calm     64 % 0.0 in
14:08 12.6 °F 5.9 °F 1001.9 in Calm     64 % 0.0 in
14:13 12.7 °F 5.8 °F 1001.9 in NNE 3.7 mph 3.7 mph 63 % 0.0 in
14:14 12.7 °F 5.8 °F 1001.9 in NE 3.7 mph 3.7 mph 63 % 0.0 in
14:19 12.7 °F 5.8 °F 1001.9 in ENE 1.9 mph 1.9 mph 63 % 0.0 in
14:24 12.8 °F 5.9 °F 1001.9 in ENE 6.1 mph 6.1 mph 63 % 0.0 in
14:28 12.9 °F 6.0 °F 1001.9 in NE 5.6 mph 5.6 mph 63 % 0.0 in
14:30 12.9 °F 6.0 °F 1001.9 in NE 3.9 mph 3.9 mph 63 % 0.0 in
14:35 13.1 °F 6.2 °F 1001.9 in North 4.2 mph 4.2 mph 63 % 0.0 in
14:40 13.2 °F 6.6 °F 1000.9 in ENE 3.7 mph 3.7 mph 64 % 0.0 in
14:45 13.1 °F 6.2 °F 1000.9 in NE 7.4 mph 7.4 mph 63 % 0.0 in
14:49 13.2 °F 6.3 °F 1000.9 in ENE 5.6 mph 5.6 mph 63 % 0.0 in
14:54 13.1 °F 6.2 °F 1001.9 in ENE 9.3 mph 9.3 mph 63 % 0.0 in
14:59 13.1 °F 6.2 °F 1001.9 in NNE 7.4 mph 7.4 mph 63 % 0.0 in
15:04 13.1 °F 6.2 °F 1001.9 in NNE 11.1 mph 11.1 mph 63 % 0.0 in
15:05 13.2 °F 6.6 °F 1001.9 in NNE 9.3 mph 9.3 mph 64 % 0.0 in
15:10 13.3 °F 6.6 °F 1000.9 in East 9.7 mph 9.7 mph 64 % 0.0 in
15:11 13.3 °F 6.6 °F 1000.9 in East 9.3 mph 9.3 mph 64 % 0.0 in
15:15 13.3 °F 6.6 °F 1000.9 in NNE 7.4 mph 7.4 mph 64 % 0.0 in
15:20 13.3 °F 6.6 °F 1001.9 in NNE 7.9 mph 7.9 mph 64 % 0.0 in
15:23 13.3 °F 6.6 °F 1001.9 in NNE 9.3 mph 9.3 mph 64 % 0.0 in
15:28 13.5 °F 7.1 °F 1001.9 in East 13.7 mph 13.7 mph 65 % 0.0 in
15:33 13.6 °F 7.4 °F 1001.9 in ENE 11.1 mph 11.1 mph 66 % 0.0 in
15:38 13.6 °F 7.4 °F 1000.9 in East 13.0 mph 13.0 mph 66 % 0.0 in
15:39 13.6 °F 7.4 °F 1000.9 in NE 11.1 mph 11.1 mph 66 % 0.0 in
15:44 13.6 °F 7.4 °F 1000.9 in NE 9.3 mph 9.3 mph 66 % 0.0 in
15:45 13.6 °F 7.4 °F 1000.9 in ENE 12.6 mph 12.6 mph 66 % 0.0 in
15:50 13.6 °F 7.4 °F 1000.9 in East 11.9 mph 11.9 mph 66 % 0.0 in
15:55 13.6 °F 7.4 °F 999.9 in ENE 12.2 mph 12.2 mph 66 % 0.0 in
15:58 13.6 °F 7.4 °F 999.9 in NNE 14.8 mph 14.8 mph 66 % 0.0 in
16:03 13.5 °F 7.3 °F 999.9 in ENE 11.1 mph 11.1 mph 66 % 0.0 in
16:08 13.5 °F 7.3 °F 999.9 in NE 11.1 mph 11.1 mph 66 % 0.0 in
16:13 13.5 °F 7.3 °F 999.9 in ENE 13.0 mph 13.0 mph 66 % 0.0 in
16:18 13.5 °F 7.3 °F 999.9 in East 13.0 mph 13.0 mph 66 % 0.0 in
16:23 13.5 °F 7.1 °F 999.9 in North 13.0 mph 13.0 mph 65 % 0.0 in
16:25 13.5 °F 7.1 °F 999.9 in NNE 7.9 mph 7.9 mph 65 % 0.0 in
16:30 13.4 °F 6.9 °F 999.9 in East 9.3 mph 9.3 mph 65 % 0.0 in
16:31 13.4 °F 6.9 °F 999.9 in ENE 9.3 mph 9.3 mph 65 % 0.0 in
16:34 13.4 °F 6.9 °F 999.9 in ENE 16.7 mph 16.7 mph 65 % 0.0 in
16:39 13.4 °F 6.9 °F 999.9 in ENE 16.7 mph 16.7 mph 65 % 0.0 in
16:44 13.4 °F 6.9 °F 999.9 in NNE 18.0 mph 18.0 mph 65 % 0.0 in
16:49 13.4 °F 6.9 °F 999.9 in ENE 22.2 mph 22.2 mph 65 % 0.0 in
16:54 13.4 °F 7.2 °F 999.9 in East 15.6 mph 15.6 mph 66 % 0.0 in
16:57 13.4 °F 7.2 °F 999.9 in NE 16.7 mph 16.7 mph 66 % 0.0 in
17:01 13.4 °F 7.2 °F 999.9 in NNE 16.7 mph 16.7 mph 66 % 0.0 in
17:06 13.4 °F 7.2 °F 998.9 in ENE 13.0 mph 13.0 mph 66 % 0.0 in
17:11 13.4 °F 7.2 °F 998.9 in ENE 13.0 mph 13.0 mph 66 % 0.0 in
17:16 13.4 °F 7.2 °F 998.9 in ESE 14.8 mph 14.8 mph 66 % 0.0 in
17:21 13.3 °F 7.1 °F 999.9 in NNE 13.0 mph 13.0 mph 66 % 0.0 in
17:25 13.3 °F 7.3 °F 999.9 in North 9.3 mph 9.3 mph 67 % 0.0 in
17:30 13.3 °F 7.3 °F 999.9 in NNE 16.7 mph 16.7 mph 67 % 0.0 in
17:32 13.3 °F 7.3 °F 999.9 in NE 20.4 mph 20.4 mph 67 % 0.0 in
17:37 13.2 °F 7.4 °F 998.9 in ENE 15.6 mph 15.6 mph 68 % 0.0 in
17:39 13.2 °F 7.4 °F 998.9 in ENE 14.8 mph 14.8 mph 68 % 0.0 in
17:42 13.2 °F 7.4 °F 998.9 in NNE 13.0 mph 13.0 mph 68 % 0.0 in
17:47 13.1 °F 7.3 °F 998.9 in NNE 13.0 mph 13.0 mph 68 % 0.0 in
17:52 13.1 °F 7.6 °F 998.9 in East 14.8 mph 14.8 mph 69 % 0.0 in
17:57 13.1 °F 7.6 °F 998.9 in East 7.4 mph 7.4 mph 69 % 0.0 in
17:59 13.1 °F 7.6 °F 998.9 in ENE 11.1 mph 11.1 mph 69 % 0.0 in
18:04 13.1 °F 7.7 °F 998.9 in North 9.3 mph 9.3 mph 70 % 0.0 in
18:06 13.1 °F 7.7 °F 999.9 in ENE 9.3 mph 9.3 mph 70 % 0.0 in
18:07 13.1 °F 7.9 °F 999.9 in NNE 11.1 mph 11.1 mph 71 % 0.0 in
18:12 13.1 °F 7.9 °F 999.9 in ENE 14.8 mph 14.8 mph 71 % 0.0 in
18:15 13.1 °F 7.9 °F 999.9 in ESE 13.0 mph 13.0 mph 71 % 0.0 in
18:20 13.1 °F 8.2 °F 999.9 in NE 12.9 mph 24.1 mph 72 % 0.0 in
18:25 13.0 °F 8.1 °F 998.9 in ENE 8.0 mph 19.3 mph 72 % 0.0 in
18:30 13.0 °F 8.1 °F 998.9 in ENE 9.7 mph 19.3 mph 72 % 0.0 in
18:35 13.0 °F 8.1 °F 998.9 in ESE 13.0 mph 13.0 mph 72 % 0.0 in
18:39 13.0 °F 8.1 °F 998.9 in East 5.6 mph 5.6 mph 72 % 0.0 in
18:44 13.0 °F 8.1 °F 998.9 in East 15.6 mph 15.6 mph 72 % 0.0 in
18:47 13.0 °F 8.3 °F 998.9 in ENE 9.3 mph 9.3 mph 73 % 0.0 in
18:50 12.5 °F 9.7 °F 997.9 in ESE 3.2 mph 4.8 mph 83 % 0.0 in
18:52 13.0 °F 8.3 °F 999.9 in ENE 9.3 mph 9.3 mph 73 % 0.0 in
18:53 13.0 °F 8.3 °F 999.9 in ENE 9.3 mph 9.3 mph 73 % 0.0 in
18:58 13.0 °F 8.4 °F 999.9 in NE 14.8 mph 14.8 mph 74 % 0.0 in
19:00 12.3 °F 9.5 °F 997.9 in SSW 3.2 mph 3.2 mph 83 % 1.0 in
19:02 13.0 °F 8.4 °F 999.9 in ENE 14.8 mph 14.8 mph 74 % 0.0 in
19:07 13.0 °F 8.4 °F 999.9 in ENE 11.1 mph 11.1 mph 74 % 0.0 in
19:09 13.0 °F 8.4 °F 999.9 in ESE 9.3 mph 9.3 mph 74 % 0.0 in
19:14 13.0 °F 8.4 °F 999.9 in ESE 11.1 mph 11.1 mph 74 % 0.0 in
19:19 13.0 °F 8.4 °F 999.9 in ENE 14.8 mph 14.8 mph 74 % 0.0 in
19:20 12.6 °F 10.2 °F 997.9 in ESE 8.0 mph 9.7 mph 85 % 0.0 in
19:21 13.0 °F 8.7 °F 998.9 in East 9.3 mph 9.3 mph 75 % 0.0 in
19:26 13.0 °F 8.9 °F 998.9 in East 11.1 mph 11.1 mph 76 % 0.0 in
19:30 12.8 °F 10.3 °F 997.9 in ESE 4.8 mph 11.3 mph 85 % 0.0 in
19:31 13.0 °F 8.9 °F 998.9 in ENE 13.0 mph 13.0 mph 76 % 0.0 in
19:36 13.0 °F 8.9 °F 999.9 in East 20.4 mph 20.4 mph 76 % 0.0 in
19:42 13.0 °F 8.9 °F 999.9 in ENE 16.7 mph 16.7 mph 76 % 0.0 in
19:43 13.0 °F 8.9 °F 999.9 in East 13.0 mph 13.0 mph 76 % 0.0 in
19:47 13.0 °F 8.7 °F 999.9 in ENE 27.4 mph 27.4 mph 75 % 0.0 in
19:49 13.0 °F 8.7 °F 999.9 in ENE 11.1 mph 11.1 mph 75 % 0.0 in
19:55 13.0 °F 8.7 °F 998.9 in NE 20.1 mph 20.1 mph 75 % 0.0 in
19:59 13.0 °F 8.4 °F 998.9 in NE 16.7 mph 16.7 mph 74 % 0.0 in
20:00 12.9 °F 10.6 °F 998.9 in ESE 9.7 mph 9.7 mph 86 % 0.0 in
20:04 13.0 °F 8.7 °F 998.9 in East 16.7 mph 16.7 mph 75 % 0.0 in
20:09 13.0 °F 8.7 °F 998.9 in NE 14.8 mph 14.8 mph 75 % 0.0 in
20:10 12.8 °F 10.7 °F 999.9 in ESE 3.2 mph 6.4 mph 87 % 0.0 in
20:14 13.0 °F 8.7 °F 998.9 in ENE 16.7 mph 16.7 mph 75 % 0.0 in
20:15 13.0 °F 8.7 °F 998.9 in ESE 13.0 mph 13.0 mph 75 % 0.0 in
20:20 13.0 °F 8.7 °F 998.9 in ENE 20.4 mph 20.4 mph 75 % 0.0 in
20:25 13.0 °F 8.7 °F 998.9 in ENE 18.5 mph 18.5 mph 75 % 0.0 in
20:30 13.0 °F 8.9 °F 998.9 in ESE 16.7 mph 16.7 mph 76 % 0.0 in
20:35 13.0 °F 8.9 °F 998.9 in North 22.2 mph 22.2 mph 76 % 0.0 in
20:40 13.0 °F 8.9 °F 997.9 in NNE 12.2 mph 12.2 mph 76 % 0.0 in
20:45 13.0 °F 8.9 °F 997.9 in East 18.5 mph 18.5 mph 76 % 0.0 in
20:46 13.1 °F 8.9 °F 997.9 in ENE 18.5 mph 18.5 mph 76 % 0.0 in
20:51 13.1 °F 9.2 °F 997.9 in NNE 16.1 mph 16.1 mph 77 % 0.0 in
20:52 13.1 °F 9.2 °F 997.9 in NE 17.2 mph 17.2 mph 77 % 0.0 in
20:57 13.1 °F 9.2 °F 997.9 in NNE 16.7 mph 16.7 mph 77 % 0.0 in
21:02 13.2 °F 9.3 °F 997.9 in ENE 22.2 mph 22.2 mph 77 % 0.0 in
21:05 12.1 °F 9.7 °F 998.9 in ENE 4.8 mph 9.7 mph 85 % 0.0 in
21:06 13.2 °F 9.3 °F 997.9 in East 22.2 mph 22.2 mph 77 % 0.0 in
21:11 13.2 °F 9.3 °F 997.9 in NE 19.5 mph 19.5 mph 77 % 0.0 in
21:16 13.2 °F 9.3 °F 997.9 in North 14.8 mph 14.8 mph 77 % 0.0 in
21:18 13.2 °F 9.3 °F 997.9 in NE 11.1 mph 11.1 mph 77 % 0.0 in
21:23 13.2 °F 9.3 °F 997.9 in ENE 14.8 mph 14.8 mph 77 % 0.0 in
21:25 11.9 °F 9.4 °F 998.9 in ENE 8.0 mph 11.3 mph 85 % 1.0 in
21:26 13.1 °F 9.2 °F 997.9 in ENE 9.7 mph 9.7 mph 77 % 0.0 in
21:28 13.1 °F 9.2 °F 997.9 in NNE 11.1 mph 11.1 mph 77 % 0.0 in
21:33 13.1 °F 9.2 °F 997.9 in ESE 13.0 mph 13.0 mph 77 % 0.0 in
21:35 11.9 °F 9.4 °F 998.9 in ENE 4.8 mph 9.7 mph 85 % 0.0 in
21:38 13.2 °F 9.3 °F 996.8 in East 14.8 mph 14.8 mph 77 % 0.0 in
21:43 13.2 °F 9.4 °F 996.8 in ENE 20.4 mph 20.4 mph 78 % 0.0 in
21:45 11.9 °F 9.6 °F 998.9 in East 4.8 mph 11.3 mph 86 % 0.0 in
21:48 13.2 °F 9.4 °F 996.8 in East 18.5 mph 18.5 mph 78 % 0.0 in
21:52 13.2 °F 9.6 °F 997.9 in East 9.7 mph 9.7 mph 79 % 0.0 in
21:55 12.0 °F 9.7 °F 998.9 in East 8.0 mph 16.1 mph 86 % 0.0 in
21:57 13.1 °F 9.3 °F 997.9 in ENE 9.3 mph 9.3 mph 78 % 0.0 in
22:02 13.1 °F 9.6 °F 997.9 in ENE 20.4 mph 20.4 mph 79 % 0.0 in
22:05 12.0 °F 9.9 °F 998.9 in East 8.0 mph 8.0 mph 87 % 0.0 in
22:07 13.2 °F 9.6 °F 996.8 in ESE 16.4 mph 16.4 mph 79 % 0.0 in
22:13 13.1 °F 9.6 °F 996.8 in East 20.4 mph 20.4 mph 79 % 0.0 in
22:15 11.9 °F 9.4 °F 998.9 in East 4.8 mph 9.7 mph 85 % 0.0 in
22:18 13.0 °F 9.6 °F 996.8 in ENE 14.8 mph 14.8 mph 80 % 0.0 in
22:23 12.9 °F 9.7 °F 996.8 in East 16.7 mph 16.7 mph 81 % 0.0 in
22:27 12.7 °F 9.7 °F 996.8 in ENE 10.0 mph 10.0 mph 82 % 1.0 in
22:32 12.6 °F 9.6 °F 996.8 in SSE 13.0 mph 13.0 mph 82 % 3.0 in
22:35 11.8 °F 9.0 °F 998.9 in SE 3.2 mph 8.0 mph 83 % 0.0 in
22:37 12.6 °F 9.8 °F 997.9 in SW 9.7 mph 9.7 mph 83 % 3.0 in
22:39 12.6 °F 9.8 °F 997.9 in SSE 14.8 mph 14.8 mph 83 % 4.1 in
22:44 12.5 °F 9.7 °F 997.9 in SSE 5.6 mph 5.6 mph 83 % 6.3 in
22:49 12.0 °F 9.2 °F 997.9 in NNW 9.3 mph 9.3 mph 83 % 6.3 in
22:50 12.0 °F 9.2 °F 997.9 in ESE 9.0 mph 9.0 mph 83 % 6.3 in
22:55 11.9 °F 9.4 °F 997.9 in WNW 6.4 mph 6.4 mph 85 % 6.3 in
23:01 12.2 °F 9.8 °F 997.9 in SE 9.3 mph 9.3 mph 85 % 6.3 in
23:05 11.6 °F 8.4 °F 999.9 in ESE 1.6 mph 4.8 mph 81 % 0.0 in
23:06 12.4 °F 9.9 °F 997.9 in ESE 3.7 mph 3.7 mph 85 % 6.3 in
23:08 12.4 °F 9.9 °F 997.9 in SSW 5.6 mph 5.6 mph 85 % 6.3 in
23:13 12.3 °F 9.8 °F 997.9 in SW 2.3 mph 2.3 mph 85 % 6.3 in
23:15 11.5 °F 8.2 °F 999.9 in SE 4.8 mph 4.8 mph 80 % 0.0 in
23:18 12.4 °F 10.1 °F 997.9 in SSW 13.0 mph 13.0 mph 86 % 6.3 in
23:20 12.5 °F 10.2 °F 997.9 in East 13.0 mph 13.0 mph 86 % 6.3 in
23:23 12.6 °F 10.2 °F 997.9 in ESE 16.7 mph 16.7 mph 85 % 6.3 in
23:25 11.5 °F 8.2 °F 999.9 in ESE 3.2 mph 4.8 mph 80 % 0.0 in
23:28 12.8 °F 10.3 °F 997.9 in ENE 13.0 mph 13.0 mph 85 % 5.3 in
23:31 12.8 °F 10.3 °F 997.9 in East 13.0 mph 13.0 mph 85 % 4.3 in
23:32 12.8 °F 10.3 °F 997.9 in ENE 13.0 mph 13.0 mph 85 % 3.3 in
23:35 11.3 °F 8.0 °F 998.9 in Calm   3.2 mph 80 % 0.0 in
23:38 12.8 °F 10.3 °F 997.9 in SE 9.3 mph 9.3 mph 85 % 2.3 in
23:39 12.8 °F 10.3 °F 997.9 in ESE 9.3 mph 9.3 mph 85 % 2.3 in
23:44 12.7 °F 10.2 °F 997.9 in East 7.4 mph 7.4 mph 85 % 0.0 in
23:45 11.2 °F 7.9 °F 998.9 in NNE 3.2 mph 4.8 mph 80 % 0.0 in
23:49 12.8 °F 10.3 °F 997.9 in ENE 3.7 mph 3.7 mph 85 % 4.1 in
23:54 12.8 °F 10.3 °F 998.9 in ENE 5.6 mph 5.6 mph 85 % 4.1 in
Meteo Sesrovires
Elogis d' Weather Underground - 2 mb

Guio original per  Jim McMurry - jmcmurry@mwt.net Adaptat per a la plantilla per  Wim van der Kuil - Leuven-Template.eu

Trobareu la nostra informacio del temps tambe a:

Weather Underground

AWEKAS